»·PEaware :: DCM205 KRDD-KPDX

DCM205 :: KRDD-KPDX

FLIGHT INFORMATION

Flight Status: Arrived
Operator:
DotCom
More flights by this operator :: More flights under this callsign
Pilot: Chris S. (2433)
Aircraft: BOEING 737-800
(B738)
More flights by this aircraft type
Origin: KRDD Redding Mun
United States
Destination: KPDX Portland Intl
United States
More flights between these airports :: More routes between these airports
Route: +KREST3 SHATA FJS OED OCITY OCITY2
File this flight plan on PilotEdge
Remarks:
Altitude:
(Current/Filed)
34,000ft
Speed:
(Current/Filed)
450kts
Departed: 28-Dec-19 11:23 AM
Arrived: 28-Dec-19 12:25 PM
Distance/Time
Traveled:
305nm/1:02
Distance/Time
To Go:
Arrived

Flight Plot

Page will automatically refresh every two minutes.

Flight plan parsing failed; only flown route is shown


Map Options




Map Legend


Flown Route
Filed Route
Departure Airport
Arrival Airport
Navaid (VOR, NDB)
Fix

Horizontal Profiles

Position Reports

Time Latitude Longitude Heading Altitude Ground
Speed
28-Dec-19 11:00 40.505095 -122.299162 315 516ft 0kts
28-Dec-19 11:01 40.505095 -122.299162 315 516ft 0kts
28-Dec-19 11:02 40.505095 -122.299162 315 516ft 0kts
28-Dec-19 11:03 40.505095 -122.299162 315 516ft 0kts
28-Dec-19 11:04 40.505095 -122.299162 315 516ft 0kts
28-Dec-19 11:05 40.505095 -122.299162 315 516ft 0kts
28-Dec-19 11:06 40.505095 -122.299162 315 516ft 0kts
28-Dec-19 11:07 40.505095 -122.299162 315 516ft 0kts
28-Dec-19 11:08 40.505095 -122.299162 315 516ft 0kts
28-Dec-19 11:09 40.505095 -122.299162 315 516ft 0kts
28-Dec-19 11:10 40.505095 -122.299162 315 516ft 0kts
28-Dec-19 11:11 40.505095 -122.299162 315 516ft 0kts
28-Dec-19 11:12 40.505095 -122.299162 315 516ft 0kts
28-Dec-19 11:13 40.505095 -122.299162 315 516ft 0kts
28-Dec-19 11:14 40.505083 -122.299146 315 516ft 1kts
28-Dec-19 11:15 40.504523 -122.298441 320 516ft 2kts
28-Dec-19 11:16 40.504214 -122.298214 356 516ft 0kts
28-Dec-19 11:17 40.504214 -122.298214 356 516ft 0kts
28-Dec-19 11:18 40.504214 -122.298214 356 516ft 0kts
28-Dec-19 11:19 40.504264 -122.298316 164 516ft 2kts
28-Dec-19 11:20 40.502299 -122.296478 135 516ft 10kts
28-Dec-19 11:21 40.501984 -122.294917 358 516ft 14kts
28-Dec-19 11:22 40.537474 -122.291690 31 1992ft 171kts
28-Dec-19 11:23 40.581109 -122.256507 3 3886ft 227kts
28-Dec-19 11:24 40.647295 -122.243314 7 6982ft 243kts
28-Dec-19 11:25 40.703718 -122.277723 289 10045ft 258kts
28-Dec-19 11:26 40.683652 -122.370278 252 13085ft 275kts
28-Dec-19 11:27 40.683363 -122.464803 301 15609ft 263kts
28-Dec-19 11:28 40.747210 -122.507732 342 17775ft 277kts
28-Dec-19 11:29 40.829391 -122.541595 340 18522ft 340kts
28-Dec-19 11:30 40.922867 -122.581150 340 20204ft 361kts
28-Dec-19 11:31 41.020272 -122.622571 340 21922ft 375kts
28-Dec-19 11:32 41.121539 -122.665681 340 23479ft 388kts
28-Dec-19 11:33 41.225769 -122.710234 339 24936ft 399kts
28-Dec-19 11:34 41.332886 -122.756185 339 26267ft 409kts
28-Dec-19 11:35 41.442430 -122.802803 342 27494ft 419kts
28-Dec-19 11:36 41.560746 -122.817722 353 28622ft 431kts
28-Dec-19 11:37 41.681057 -122.830191 352 29796ft 435kts
28-Dec-19 11:38 41.801706 -122.842377 352 31159ft 433kts
28-Dec-19 11:39 41.921647 -122.854808 352 32419ft 430kts
28-Dec-19 11:40 42.040347 -122.867049 352 33524ft 429kts
28-Dec-19 11:41 42.159288 -122.879394 352 34362ft 427kts
28-Dec-19 11:42 42.277644 -122.891740 352 34368ft 427kts
28-Dec-19 11:43 42.396355 -122.904163 352 34379ft 427kts
28-Dec-19 11:44 42.515197 -122.910335 0 34334ft 431kts
28-Dec-19 11:45 42.634533 -122.898187 0 34293ft 429kts
28-Dec-19 11:46 42.753188 -122.887385 0 34277ft 422kts
28-Dec-19 11:47 42.871912 -122.876172 0 34322ft 431kts
28-Dec-19 11:48 42.991318 -122.864876 1 34330ft 430kts
28-Dec-19 11:49 43.110494 -122.853585 1 34370ft 430kts
28-Dec-19 11:50 43.229885 -122.842216 1 34361ft 429kts
28-Dec-19 11:51 43.349348 -122.830798 1 34340ft 429kts
28-Dec-19 11:52 43.467521 -122.819438 1 33880ft 415kts
28-Dec-19 11:53 43.581462 -122.808481 1 32895ft 406kts
28-Dec-19 11:54 43.693351 -122.797651 1 31909ft 399kts
28-Dec-19 11:55 43.802812 -122.787028 1 30373ft 389kts
28-Dec-19 11:56 43.909718 -122.776644 1 28507ft 381kts
28-Dec-19 11:57 44.014129 -122.766423 1 26672ft 372kts
28-Dec-19 11:58 44.116266 -122.756426 1 24896ft 364kts
28-Dec-19 11:59 44.215123 -122.746697 0 23440ft 351kts
28-Dec-19 12:00 44.311379 -122.737240 0 21894ft 341kts
28-Dec-19 12:01 44.404763 -122.728011 0 20480ft 332kts
28-Dec-19 12:02 44.495964 -122.719003 0 19109ft 324kts
28-Dec-19 12:03 44.584776 -122.710170 359 17643ft 319kts
28-Dec-19 12:04 44.672583 -122.701354 359 16167ft 309kts
28-Dec-19 12:05 44.757738 -122.692857 359 14930ft 304kts
28-Dec-19 12:06 44.841725 -122.684384 359 13728ft 300kts
28-Dec-19 12:07 44.924010 -122.676078 359 12567ft 294kts
28-Dec-19 12:08 45.005017 -122.667865 359 11977ft 291kts
28-Dec-19 12:09 45.085677 -122.659690 359 11983ft 291kts
28-Dec-19 12:10 45.166397 -122.651477 359 11702ft 289kts
28-Dec-19 12:11 45.244611 -122.643463 0 10237ft 286kts
28-Dec-19 12:13 45.321412 -122.635581 1 8778ft 282kts
28-Dec-19 12:14 45.399023 -122.627621 1 7279ft 277kts
28-Dec-19 12:15 45.466113 -122.659833 307 5772ft 265kts
28-Dec-19 12:16 45.509923 -122.743812 304 4978ft 263kts
28-Dec-19 12:17 45.553271 -122.827963 304 4772ft 263kts
28-Dec-19 12:18 45.596870 -122.910693 316 3265ft 259kts
28-Dec-19 12:19 45.658374 -122.910010 24 2983ft 220kts
28-Dec-19 12:20 45.681122 -122.842085 117 2984ft 215kts
28-Dec-19 12:21 45.652402 -122.768585 119 2320ft 202kts
28-Dec-19 12:22 45.628455 -122.707030 119 1416ft 145kts
28-Dec-19 12:23 45.610759 -122.661569 118 688ft 128kts
28-Dec-19 12:24 45.593588 -122.617444 118 33ft 121kts
28-Dec-19 12:25 45.587908 -122.600232 78 32ft 0kts

Navigation Log

Ident Type
Flight plan parsing failed, navigation log unavailable